Time;durP1;ratioP1;P1;durP2;ratioP2;P2;SDS_P1;SDS_P2;PMS_P1;PMS_P2;Temp;Humidity;BMP_temperature;BMP_pressure;BME280_temperature;BME280_humidity;BME280_pressure;Samples;Min_cycle;Max_cycle;Signal;HPM_P1;HPM_P2
2023/03/12 00:00:07;;;;;;;55.17;11.02;;;;;;;7.91;100.00;99487.16;5052730;28;20055;-41
2023/03/12 00:02:34;;;;;;;50.10;11.85;;;;;;;7.89;100.00;99483.94;5064447;28;20138;-41
2023/03/12 00:05:01;;;;;;;56.78;10.25;;;;;;;7.88;100.00;99485.13;5060442;28;20171;-40
2023/03/12 00:07:28;;;;;;;52.30;11.00;;;;;;;7.85;100.00;99483.09;5062797;28;20126;-40
2023/03/12 00:09:55;;;;;;;46.88;9.65;;;;;;;7.84;100.00;99489.75;5060689;28;20044;-41
2023/03/12 00:12:24;;;;;;;46.05;9.30;;;;;;;7.83;100.00;99493.66;5061114;28;20060;-41
2023/03/12 00:14:50;;;;;;;55.30;10.43;;;;;;;7.83;100.00;99487.34;5057119;28;20139;-41
2023/03/12 00:17:17;;;;;;;53.38;10.48;;;;;;;7.81;100.00;99473.91;5066999;28;20143;-41
2023/03/12 00:19:44;;;;;;;40.00;9.27;;;;;;;7.78;100.00;99480.13;5063907;28;20055;-41
2023/03/12 00:22:11;;;;;;;58.28;8.45;;;;;;;7.78;100.00;99473.84;5061823;28;20041;-41
2023/03/12 00:24:37;;;;;;;35.45;7.00;;;;;;;7.77;100.00;99473.03;5066826;28;20119;-41
2023/03/12 00:27:06;;;;;;;39.47;9.35;;;;;;;7.79;100.00;99473.47;5068115;28;20044;-41
2023/03/12 00:29:32;;;;;;;43.83;8.20;;;;;;;7.82;100.00;99467.25;5070917;28;20077;-42
2023/03/12 00:31:59;;;;;;;36.33;7.95;;;;;;;7.82;100.00;99472.78;5068643;28;20054;-41
2023/03/12 00:34:26;;;;;;;39.45;9.15;;;;;;;7.84;100.00;99481.47;5070418;28;20040;-40
2023/03/12 00:36:53;;;;;;;38.10;6.97;;;;;;;7.85;100.00;99474.81;5057309;28;20068;-43
2023/03/12 00:39:19;;;;;;;30.08;9.00;;;;;;;7.87;100.00;99477.19;5081085;28;20050;-41
2023/03/12 00:41:46;;;;;;;42.53;8.02;;;;;;;7.87;100.00;99472.50;5088770;28;20059;-41
2023/03/12 00:44:13;;;;;;;34.72;8.63;;;;;;;7.88;100.00;99476.84;5089069;28;20052;-41
2023/03/12 00:46:39;;;;;;;36.42;7.90;;;;;;;7.88;100.00;99478.81;5061376;28;20063;-43
2023/03/12 00:49:07;;;;;;;43.83;9.68;;;;;;;7.87;100.00;99478.00;5082990;28;20094;-41
2023/03/12 00:51:34;;;;;;;41.15;8.45;;;;;;;7.87;100.00;99472.50;5054570;28;20037;-41
2023/03/12 00:54:00;;;;;;;44.33;7.65;;;;;;;7.87;100.00;99483.50;5072031;28;20047;-43
2023/03/12 00:56:27;;;;;;;36.10;6.88;;;;;;;7.86;100.00;99484.66;5088453;28;20134;-41
2023/03/12 00:58:54;;;;;;;33.75;7.85;;;;;;;7.88;100.00;99479.63;5088244;28;20401;-41
2023/03/12 01:01:21;;;;;;;49.30;10.35;;;;;;;7.86;100.00;99487.41;5054306;28;20082;-41
2023/03/12 01:03:50;;;;;;;36.08;6.55;;;;;;;7.85;100.00;99501.56;5070677;28;20558;-45
2023/03/12 01:06:17;;;;;;;38.35;7.85;;;;;;;7.84;100.00;99494.44;5059720;28;20056;-42
2023/03/12 01:08:44;;;;;;;39.47;8.70;;;;;;;7.82;100.00;99492.06;5053878;28;20071;-41
2023/03/12 01:11:18;;;;;;;42.53;6.68;;;;;;;7.82;100.00;99496.75;5076896;28;20573;-41
2023/03/12 01:13:45;;;;;;;40.15;7.45;;;;;;;7.79;100.00;99514.81;5069915;28;20040;-42
2023/03/12 01:16:12;;;;;;;34.63;9.00;;;;;;;7.77;100.00;99519.88;5077083;28;20091;-41
2023/03/12 01:18:39;;;;;;;34.80;7.22;;;;;;;7.75;100.00;99524.16;5070216;28;20666;-42
2023/03/12 01:21:06;;;;;;;34.05;7.22;;;;;;;7.74;100.00;99522.53;5070127;28;20055;-41
2023/03/12 01:23:33;;;;;;;47.83;8.93;;;;;;;7.73;100.00;99529.22;5057465;28;20503;-42
2023/03/12 01:25:59;;;;;;;28.98;5.72;;;;;;;7.72;100.00;99533.13;5068732;28;20033;-40
2023/03/12 01:28:26;;;;;;;42.85;7.35;;;;;;;7.72;100.00;99535.88;5076977;28;20047;-39
2023/03/12 01:30:53;;;;;;;47.47;7.75;;;;;;;7.71;100.00;99529.56;5087335;28;20054;-39
2023/03/12 01:33:21;;;;;;;39.10;8.07;;;;;;;7.70;100.00;99538.19;5088235;28;20056;-40
2023/03/12 01:35:49;;;;;;;44.00;9.93;;;;;;;7.68;100.00;99530.25;5077728;28;20048;-40
2023/03/12 01:38:17;;;;;;;32.65;6.97;;;;;;;7.65;100.00;99543.97;5088351;28;20089;-40
2023/03/12 01:40:44;;;;;;;39.45;8.10;;;;;;;7.64;100.00;99551.44;5087774;28;20044;-40
2023/03/12 01:43:29;;;;;;;46.15;9.80;;;;;;;7.65;100.00;99555.75;5084167;28;20207;-40
2023/03/12 01:46:31;;;;;;;42.90;7.72;;;;;;;7.67;100.00;99545.22;5082420;28;20071;-39
2023/03/12 01:49:04;;;;;;;39.88;7.65;;;;;;;7.68;100.00;99552.31;4985831;28;20137;-40
2023/03/12 01:51:54;;;;;;;40.22;10.10;;;;;;;7.69;100.00;99547.59;5050710;28;20059;-40
2023/03/12 01:54:32;;;;;;;39.03;8.00;;;;;;;7.70;100.00;99566.53;5074271;28;20123;-40
2023/03/12 01:57:01;;;;;;;30.30;7.13;;;;;;;7.70;100.00;99571.25;5050465;28;20052;-43
2023/03/12 01:59:53;;;;;;;46.35;7.47;;;;;;;7.69;100.00;99562.19;5070561;28;20137;-45
2023/03/12 02:02:27;;;;;;;44.53;7.28;;;;;;;7.72;100.00;99571.69;5070457;28;20051;-39
2023/03/12 02:05:19;;;;;;;54.50;9.00;;;;;;;7.74;100.00;99550.09;5070052;28;20404;-40
2023/03/12 02:07:45;;;;;;;33.05;7.97;;;;;;;7.76;100.00;99565.09;5066501;28;20436;-40
2023/03/12 02:10:12;;;;;;;47.70;8.23;;;;;;;7.77;100.00;99560.41;5069777;28;20048;-40
2023/03/12 02:12:41;;;;;;;33.08;7.53;;;;;;;7.77;100.00;99554.88;5085791;28;20059;-40
2023/03/12 02:15:09;;;;;;;44.60;7.40;;;;;;;7.77;100.00;99550.19;5086724;28;20044;-39
2023/03/12 02:17:38;;;;;;;46.72;8.48;;;;;;;7.78;100.00;99573.03;5075087;28;20063;-43
2023/03/12 02:20:49;;;;;;;44.85;9.80;;;;;;;7.78;100.00;99559.25;5089251;28;20400;-40
2023/03/12 02:24:00;;;;;;;32.38;7.95;;;;;;;7.77;100.00;99563.97;5072931;28;20062;-41
2023/03/12 02:26:28;;;;;;;37.15;7.32;;;;;;;7.74;100.00;99570.19;5078315;28;20040;-40
2023/03/12 02:28:58;;;;;;;32.78;8.82;;;;;;;7.73;100.00;99593.34;5086654;28;20052;-40
2023/03/12 02:31:30;;;;;;;36.22;6.90;;;;;;;7.73;100.00;99585.09;5088983;28;20036;-40
2023/03/12 02:33:59;;;;;;;66.05;9.88;;;;;;;7.72;100.00;99585.47;5088829;28;20115;-40
2023/03/12 02:36:26;;;;;;;35.25;8.63;;;;;;;7.71;100.00;99581.09;5077789;28;20044;-40
2023/03/12 02:38:54;;;;;;;50.65;10.43;;;;;;;7.70;100.00;99572.06;5066811;28;20063;-44
2023/03/12 02:41:30;;;;;;;34.22;7.43;;;;;;;7.71;100.00;99573.63;5082548;28;20040;-40
2023/03/12 02:44:04;;;;;;;46.40;8.05;;;;;;;7.71;100.00;99584.66;5071524;28;20371;-40
2023/03/12 02:46:34;;;;;;;45.40;7.55;;;;;;;7.71;100.00;99589.34;5091239;28;20063;-41
2023/03/12 02:49:01;;;;;;;38.25;7.00;;;;;;;7.70;100.00;99585.84;5082333;28;20040;-40
2023/03/12 02:51:28;;;;;;;35.63;8.05;;;;;;;7.72;100.00;99607.50;5084340;28;20059;-40
2023/03/12 02:53:55;;;;;;;41.08;7.47;;;;;;;7.70;100.00;99594.09;5068965;28;20512;-41
2023/03/12 02:56:26;;;;;;;45.72;9.43;;;;;;;7.71;100.00;99600.38;5086515;28;20410;-41
2023/03/12 02:58:53;;;;;;;51.53;9.25;;;;;;;7.70;100.00;99602.34;5088019;28;20052;-40
2023/03/12 03:01:20;;;;;;;56.40;9.93;;;;;;;7.70;100.00;99588.59;5102988;22;20049;-45
2023/03/12 03:03:47;;;;;;;64.85;11.05;;;;;;;7.68;100.00;99581.81;5013129;28;20045;-44
2023/03/12 03:06:15;;;;;;;43.45;6.38;;;;;;;7.64;100.00;99572.66;5013242;28;20064;-44
2023/03/12 03:08:43;;;;;;;40.60;8.02;;;;;;;7.60;100.00;99583.56;5030898;28;20049;-43
2023/03/12 03:11:10;;;;;;;47.80;10.65;;;;;;;7.58;100.00;99585.88;5030430;28;20059;-46
2023/03/12 03:13:37;;;;;;;39.17;6.70;;;;;;;7.57;100.00;99578.75;5030328;28;20072;-42
2023/03/12 03:16:04;;;;;;;47.67;8.50;;;;;;;7.58;100.00;99590.59;5030075;28;20068;-44
2023/03/12 03:18:31;;;;;;;32.08;7.30;;;;;;;7.57;100.00;99584.28;5030540;28;20495;-43
2023/03/12 03:21:02;;;;;;;51.67;9.07;;;;;;;7.56;100.00;99588.19;5029930;28;20052;-43
2023/03/12 03:23:29;;;;;;;40.50;7.57;;;;;;;7.52;100.00;99592.81;5030080;28;20132;-43
2023/03/12 03:25:56;;;;;;;37.47;6.45;;;;;;;7.48;100.00;99596.63;5030043;28;20047;-44
2023/03/12 03:28:27;;;;;;;49.38;10.80;;;;;;;7.45;100.00;99609.13;5030224;28;20045;-43
2023/03/12 03:31:02;;;;;;;38.40;7.97;;;;;;;7.42;100.00;99620.84;5012114;28;20049;-48
2023/03/12 03:33:31;;;;;;;38.80;7.60;;;;;;;7.39;100.00;99620.78;5020701;28;20542;-43
2023/03/12 03:35:58;;;;;;;45.50;9.57;;;;;;;7.33;100.00;99622.97;5026323;28;20081;-43
2023/03/12 03:38:27;;;;;;;35.80;6.63;;;;;;;7.31;100.00;99615.06;5028911;28;20558;-40
2023/03/12 03:40:54;;;;;;;39.50;6.47;;;;;;;7.28;100.00;99631.50;5026970;28;20053;-40
2023/03/12 03:43:21;;;;;;;46.42;7.38;;;;;;;7.27;100.00;99618.88;5029474;28;20044;-41
2023/03/12 03:45:55;;;;;;;39.42;8.52;;;;;;;7.23;100.00;99617.94;5027564;28;20047;-40
2023/03/12 03:48:21;;;;;;;41.75;7.97;;;;;;;7.21;100.00;99610.06;5025831;28;20162;-43
2023/03/12 03:50:48;;;;;;;36.60;8.20;;;;;;;7.20;100.00;99616.69;5024183;28;20042;-40
2023/03/12 03:53:15;;;;;;;34.17;6.30;;;;;;;7.20;100.00;99616.69;5028232;28;20601;-42
2023/03/12 03:55:41;;;;;;;31.38;8.98;;;;;;;7.18;100.00;99631.97;5024609;28;20041;-40
2023/03/12 03:58:08;;;;;;;45.17;10.02;;;;;;;7.18;100.00;99637.47;5024761;28;20071;-41
2023/03/12 04:00:35;;;;;;;38.83;6.82;;;;;;;7.15;100.00;99635.41;5030845;28;20519;-41
2023/03/12 04:03:01;;;;;;;30.95;7.85;;;;;;;7.14;100.00;99634.63;5026995;28;20061;-40
2023/03/12 04:05:28;;;;;;;39.83;7.90;;;;;;;7.13;100.00;99635.78;5027223;28;20128;-41
2023/03/12 04:07:55;;;;;;;38.95;6.95;;;;;;;7.11;100.00;99629.81;5020839;28;20045;-43
2023/03/12 04:10:23;;;;;;;37.78;7.38;;;;;;;7.10;100.00;99641.16;5027115;28;20053;-43
2023/03/12 04:12:51;;;;;;;43.17;7.05;;;;;;;7.10;100.00;99638.41;5029010;28;20056;-44
2023/03/12 04:15:18;;;;;;;29.75;5.57;;;;;;;7.10;100.00;99632.91;5028826;28;20103;-43
2023/03/12 04:17:45;;;;;;;38.30;6.75;;;;;;;7.10;100.00;99624.66;5029285;28;20108;-43
2023/03/12 04:20:12;;;;;;;37.20;10.88;;;;;;;7.10;100.00;99624.66;5028778;28;20049;-43
2023/03/12 04:22:39;;;;;;;49.00;10.23;;;;;;;7.09;100.00;99634.06;5029180;28;20495;-45
2023/03/12 04:25:07;;;;;;;31.25;7.10;;;;;;;7.10;100.00;99630.16;5028624;28;20052;-43
2023/03/12 04:27:34;;;;;;;39.70;8.95;;;;;;;7.10;100.00;99635.66;5028859;28;20033;-43
2023/03/12 04:30:01;;;;;;;33.78;5.75;;;;;;;7.12;100.00;99649.91;5028461;28;20053;-43
2023/03/12 04:32:28;;;;;;;35.80;6.88;;;;;;;7.16;100.00;99645.28;5028888;28;20543;-43
2023/03/12 04:34:55;;;;;;;36.42;7.50;;;;;;;7.19;100.00;99644.59;5026318;28;20052;-43
2023/03/12 04:37:21;;;;;;;31.38;7.82;;;;;;;7.18;100.00;99630.00;5028455;28;20080;-44
2023/03/12 04:39:48;;;;;;;31.10;5.75;;;;;;;7.18;100.00;99627.25;5024755;28;20041;-43
2023/03/12 04:42:15;;;;;;;28.73;5.50;;;;;;;7.18;100.00;99621.75;5027977;28;20049;-43
2023/03/12 04:44:41;;;;;;;40.03;7.43;;;;;;;7.21;100.00;99609.25;5021476;28;20045;-46
2023/03/12 04:47:08;;;;;;;40.55;5.38;;;;;;;7.21;100.00;99609.25;5024695;28;20053;-43
2023/03/12 04:49:37;;;;;;;33.17;8.35;;;;;;;7.21;100.00;99607.31;5026764;28;20034;-43
2023/03/12 04:52:04;;;;;;;35.58;5.80;;;;;;;7.19;100.00;99606.84;5015883;28;20081;-43
2023/03/12 04:54:32;;;;;;;29.90;4.85;;;;;;;7.20;100.00;99618.69;5016611;28;20516;-43
2023/03/12 04:56:58;;;;;;;29.33;6.22;;;;;;;7.19;100.00;99622.56;5027397;28;20045;-43
2023/03/12 04:59:25;;;;;;;24.67;5.25;;;;;;;7.17;100.00;99620.19;5025383;28;20041;-42
2023/03/12 05:01:52;;;;;;;23.75;5.18;;;;;;;7.18;100.00;99631.97;5024636;28;20053;-42
2023/03/12 05:04:18;;;;;;;46.50;8.38;;;;;;;7.14;100.00;99625.56;5010595;28;20132;-43
2023/03/12 05:06:45;;;;;;;29.92;8.05;;;;;;;7.12;100.00;99614.13;5023631;28;20084;-43
2023/03/12 05:09:12;;;;;;;29.25;5.45;;;;;;;7.08;100.00;99627.75;5020517;28;20041;-43
2023/03/12 05:11:38;;;;;;;26.45;5.97;;;;;;;7.03;100.00;99630.75;5025523;28;20049;-50
2023/03/12 05:14:05;;;;;;;29.00;5.47;;;;;;;7.01;100.00;99633.06;5021102;28;20128;-42
2023/03/12 05:16:32;;;;;;;39.25;8.40;;;;;;;6.98;100.00;99625.50;5024240;28;20052;-43
2023/03/12 05:18:59;;;;;;;31.90;6.13;;;;;;;6.99;100.00;99629.06;5024862;28;20053;-45
2023/03/12 05:21:25;;;;;;;28.38;6.95;;;;;;;6.98;100.00;99628.25;5026524;28;20053;-43
2023/03/12 05:23:52;;;;;;;43.17;7.05;;;;;;;6.98;100.00;99638.47;5028076;28;20045;-43
2023/03/12 05:26:24;;;;;;;37.67;7.63;;;;;;;6.99;100.00;99634.56;5029216;28;20041;-42
2023/03/12 05:28:51;;;;;;;27.75;6.72;;;;;;;7.00;100.00;99644.41;5028593;28;20045;-46
2023/03/12 05:31:18;;;;;;;38.42;7.57;;;;;;;7.03;100.00;99654.72;5010444;28;20045;-41
2023/03/12 05:33:45;;;;;;;37.35;6.95;;;;;;;7.03;100.00;99641.78;5031570;28;20054;-44
2023/03/12 05:36:13;;;;;;;40.47;6.18;;;;;;;7.06;100.00;99660.34;5031860;28;20037;-41
2023/03/12 05:38:41;;;;;;;32.35;6.60;;;;;;;7.11;100.00;99653.78;5012486;28;20491;-40
2023/03/12 05:41:16;;;;;;;28.27;5.68;;;;;;;7.13;100.00;99654.22;5031907;28;20053;-40
2023/03/12 05:43:43;;;;;;;30.05;5.93;;;;;;;7.14;100.00;99650.34;5032141;28;20406;-40
2023/03/12 05:46:09;;;;;;;27.13;5.78;;;;;;;7.15;100.00;99646.41;5031441;28;20045;-40
2023/03/12 05:48:36;;;;;;;34.78;5.65;;;;;;;7.16;100.00;99640.59;5031688;28;20529;-41
2023/03/12 05:51:03;;;;;;;34.25;8.77;;;;;;;7.16;100.00;99639.78;5030791;28;20081;-40
2023/03/12 05:53:30;;;;;;;44.70;7.65;;;;;;;7.18;100.00;99654.78;5031625;28;20065;-46
2023/03/12 05:56:03;;;;;;;37.42;6.43;;;;;;;7.17;100.00;99657.91;5022915;28;20080;-40
2023/03/12 05:58:31;;;;;;;43.33;6.55;;;;;;;7.16;100.00;99642.53;5030710;28;20037;-39
2023/03/12 06:00:58;;;;;;;35.90;7.80;;;;;;;7.13;100.00;99635.78;5026813;28;20072;-41
2023/03/12 06:03:25;;;;;;;53.83;9.88;;;;;;;7.11;100.00;99631.75;5026430;28;20136;-41
2023/03/12 06:05:54;;;;;;;37.00;8.00;;;;;;;7.09;100.00;99628.56;5027087;28;20717;-41
2023/03/12 06:08:24;;;;;;;33.22;7.47;;;;;;;7.08;100.00;99626.97;5024963;28;20057;-41
2023/03/12 06:10:53;;;;;;;33.33;5.78;;;;;;;7.06;100.00;99630.06;5024518;28;20069;-40
2023/03/12 06:13:21;;;;;;;39.33;7.22;;;;;;;7.05;100.00;99622.94;5029573;28;20044;-40
2023/03/12 06:15:48;;;;;;;39.08;8.15;;;;;;;7.04;100.00;99631.56;5028017;28;20049;-41
2023/03/12 06:18:15;;;;;;;29.02;7.60;;;;;;;7.00;100.00;99634.22;5027897;28;20147;-40
2023/03/12 06:20:42;;;;;;;37.38;6.50;;;;;;;6.99;100.00;99643.59;5027609;28;20141;-40
2023/03/12 06:23:09;;;;;;;40.60;6.00;;;;;;;6.98;100.00;99654.97;5025815;28;20045;-41
2023/03/12 06:25:35;;;;;;;32.10;8.38;;;;;;;6.97;100.00;99654.16;5027705;28;20052;-40
2023/03/12 06:28:05;;;;;;;38.63;8.43;;;;;;;6.94;100.00;99643.03;5029224;28;20054;-40
2023/03/12 06:30:32;;;;;;;45.97;8.68;;;;;;;6.90;100.00;99642.16;5028280;28;20088;-41
2023/03/12 06:32:59;;;;;;;32.38;7.30;;;;;;;6.89;100.00;99646.03;5025711;28;20049;-40
2023/03/12 06:35:25;;;;;;;39.58;6.40;;;;;;;6.89;100.00;99640.53;5012433;28;20045;-40
2023/03/12 06:37:53;;;;;;;42.90;8.88;;;;;;;6.88;100.00;99634.25;5027853;28;20045;-40
2023/03/12 06:40:20;;;;;;;56.20;9.05;;;;;;;6.87;100.00;99640.88;5029981;28;20371;-40
2023/03/12 06:42:47;;;;;;;28.13;6.03;;;;;;;6.88;100.00;99645.25;5023373;28;20042;-40
2023/03/12 06:45:14;;;;;;;39.25;6.85;;;;;;;6.88;100.00;99655.44;5026176;28;20045;-40
2023/03/12 06:47:41;;;;;;;48.55;6.45;;;;;;;6.89;100.00;99663.34;5028160;28;20132;-40
2023/03/12 06:50:08;;;;;;;35.30;6.22;;;;;;;6.89;100.00;99649.59;5033072;28;20049;-40
2023/03/12 06:52:35;;;;;;;37.50;7.20;;;;;;;6.91;100.00;99643.75;5025811;28;20107;-40
2023/03/12 06:55:02;;;;;;;35.33;6.32;;;;;;;6.90;100.00;99642.16;5029199;28;20056;-43
2023/03/12 06:57:28;;;;;;;41.75;6.60;;;;;;;6.89;100.00;99640.53;5027120;28;20045;-44
2023/03/12 06:59:55;;;;;;;42.55;7.28;;;;;;;6.89;100.00;99641.34;5027409;28;20049;-43
2023/03/12 07:02:22;;;;;;;33.50;6.57;;;;;;;6.90;100.00;99639.41;5026875;28;20050;-42
2023/03/12 07:04:48;;;;;;;44.63;7.50;;;;;;;6.88;100.00;99636.19;5012295;28;20231;-45
2023/03/12 07:07:15;;;;;;;37.58;6.82;;;;;;;6.88;100.00;99633.44;5026900;28;20447;-43
2023/03/12 07:09:42;;;;;;;49.90;8.48;;;;;;;6.87;100.00;99626.31;5023532;28;20041;-46
2023/03/12 07:12:09;;;;;;;27.77;6.68;;;;;;;6.87;100.00;99638.13;5021929;28;20120;-43
2023/03/12 07:14:36;;;;;;;28.80;6.00;;;;;;;6.89;100.00;99629.53;5027248;28;20418;-43
2023/03/12 07:17:03;;;;;;;31.58;6.03;;;;;;;6.90;100.00;99631.13;5027005;28;20051;-43
2023/03/12 07:19:29;;;;;;;40.33;6.35;;;;;;;6.91;100.00;99636.28;5022184;28;20037;-43
2023/03/12 07:21:56;;;;;;;30.38;7.07;;;;;;;6.94;100.00;99632.03;5027197;28;20041;-42
2023/03/12 07:24:23;;;;;;;43.30;6.45;;;;;;;6.97;100.00;99631.34;5030356;28;20041;-43
2023/03/12 07:26:49;;;;;;;42.42;6.45;;;;;;;7.01;100.00;99629.50;5029958;28;20068;-43
2023/03/12 07:29:16;;;;;;;23.30;5.75;;;;;;;7.06;100.00;99629.25;5029665;28;20057;-45
2023/03/12 07:31:43;;;;;;;40.85;7.00;;;;;;;7.08;100.00;99632.47;5029892;28;20376;-43
2023/03/12 07:34:09;;;;;;;38.40;6.60;;;;;;;7.10;100.00;99630.16;5029853;28;20167;-43
2023/03/12 07:36:37;;;;;;;34.97;5.63;;;;;;;7.12;100.00;99639.66;5029901;28;20045;-43
2023/03/12 07:39:03;;;;;;;31.80;5.93;;;;;;;7.15;100.00;99638.16;5029537;28;20127;-44
2023/03/12 07:41:30;;;;;;;35.03;5.68;;;;;;;7.17;100.00;99646.91;5030293;28;20551;-43
2023/03/12 07:43:57;;;;;;;37.88;8.40;;;;;;;7.21;100.00;99637.56;5029496;28;21007;-48
2023/03/12 07:46:24;;;;;;;37.50;7.72;;;;;;;7.26;100.00;99636.53;5029953;28;20045;-42
2023/03/12 07:48:51;;;;;;;37.20;7.38;;;;;;;7.30;100.00;99630.00;5020490;28;20041;-43
2023/03/12 07:51:18;;;;;;;38.70;5.50;;;;;;;7.33;100.00;99631.25;5019462;28;20091;-43
2023/03/12 07:53:45;;;;;;;32.50;6.30;;;;;;;7.37;100.00;99645.88;5025519;28;20049;-43
2023/03/12 07:56:12;;;;;;;46.58;7.00;;;;;;;7.40;100.00;99641.63;5027827;28;20055;-44
2023/03/12 07:58:38;;;;;;;37.60;6.10;;;;;;;7.45;100.00;99646.88;5027620;28;20132;-43
2023/03/12 08:01:05;;;;;;;35.55;6.40;;;;;;;7.48;100.00;99652.50;5023109;28;20118;-44
2023/03/12 08:03:33;;;;;;;36.67;6.82;;;;;;;7.51;100.00;99643.53;5026980;28;20059;-43
2023/03/12 08:06:02;;;;;;;36.38;8.90;;;;;;;7.58;100.00;99646.47;5015293;28;20048;-43
2023/03/12 08:08:30;;;;;;;39.17;6.03;;;;;;;7.63;100.00;99643.47;5027041;28;20443;-43
2023/03/12 08:10:59;;;;;;;37.17;6.32;;;;;;;7.70;100.00;99643.69;5026550;28;20052;-43
2023/03/12 08:13:26;;;;;;;43.28;6.20;;;;;;;7.74;100.00;99633.53;5028683;28;20570;-44
2023/03/12 08:15:53;;;;;;;30.45;7.28;;;;;;;7.78;100.00;99631.66;5027250;28;20098;-42
2023/03/12 08:18:21;;;;;;;33.88;7.05;;;;;;;7.84;100.00;99633.03;5026893;28;20053;-49
2023/03/12 08:20:52;;;;;;;43.05;6.25;;;;;;;7.88;100.00;99641.38;5026987;28;20045;-43
2023/03/12 08:23:20;;;;;;;29.30;5.50;;;;;;;7.93;100.00;99650.19;5026348;28;20037;-40
2023/03/12 08:25:48;;;;;;;35.45;7.78;;;;;;;7.97;100.00;99647.50;5026070;28;20038;-39
2023/03/12 08:28:16;;;;;;;33.95;7.43;;;;;;;8.01;100.00;99648.41;5021529;28;20305;-45
2023/03/12 08:30:48;;;;;;;37.63;7.28;;;;;;;8.05;100.00;99648.53;5019985;28;20486;-42
2023/03/12 08:33:15;;;;;;;39.88;6.32;;;;;;;8.09;100.00;99652.97;5022189;28;20053;-45
2023/03/12 08:35:41;;;;;;;32.45;6.25;;;;;;;8.17;100.00;99645.66;5027354;28;20463;-41
2023/03/12 08:38:08;;;;;;;22.27;5.75;;;;;;;8.24;100.00;99651.34;5021851;28;20079;-45
2023/03/12 08:40:35;;;;;;;31.52;7.80;;;;;;;8.32;100.00;99655.91;5020689;28;20083;-41
2023/03/12 08:43:02;;;;;;;33.53;6.03;;;;;;;8.39;100.00;99647.84;5027172;28;20128;-45
2023/03/12 08:45:29;;;;;;;26.42;6.50;;;;;;;8.44;100.00;99640.09;5017429;28;20136;-44
2023/03/12 08:47:56;;;;;;;28.60;6.05;;;;;;;8.47;100.00;99644.09;5020296;28;20410;-41
2023/03/12 08:50:25;;;;;;;38.42;8.18;;;;;;;8.46;100.00;99626.75;5024042;28;20124;-41
2023/03/12 08:52:51;;;;;;;45.75;8.23;;;;;;;8.48;100.00;99615.34;5019386;28;20128;-41
2023/03/12 08:55:18;;;;;;;38.25;7.18;;;;;;;8.51;100.00;99603.59;5028378;28;20482;-40
2023/03/12 08:57:45;;;;;;;24.73;6.35;;;;;;;8.58;100.00;99617.53;5028493;28;20048;-45
2023/03/12 09:00:14;;;;;;;29.10;7.90;;;;;;;8.62;100.00;99607.41;5028392;28;20140;-40
2023/03/12 09:02:44;;;;;;;28.73;5.35;;;;;;;8.72;100.00;99581.19;5028329;28;20049;-42
2023/03/12 09:05:12;;;;;;;42.53;7.32;;;;;;;8.81;100.00;99571.56;5010273;28;20495;-41
2023/03/12 09:07:39;;;;;;;29.30;5.53;;;;;;;8.89;100.00;99570.56;5032865;28;20140;-45
2023/03/12 09:10:06;;;;;;;36.85;7.22;;;;;;;8.97;100.00;99558.50;5026785;28;20049;-42
2023/03/12 09:12:32;;;;;;;25.60;5.82;;;;;;;9.07;100.00;99549.63;5024942;28;20045;-42
2023/03/12 09:14:59;;;;;;;31.10;6.72;;;;;;;9.16;100.00;99533.63;5011764;28;20049;-46
2023/03/12 09:17:30;;;;;;;36.20;7.03;;;;;;;9.26;100.00;99531.44;5032520;28;20041;-42
2023/03/12 09:19:57;;;;;;;41.38;6.60;;;;;;;9.32;100.00;99538.28;5007559;28;20047;-42
2023/03/12 09:22:23;;;;;;;30.30;5.85;;;;;;;9.37;100.00;99527.69;5026816;28;20045;-43
2023/03/12 09:24:51;;;;;;;29.77;7.13;;;;;;;9.43;100.00;99531.75;5024685;28;20052;-43
2023/03/12 09:27:18;;;;;;;26.60;5.15;;;;;;;9.50;100.00;99539.41;5026503;28;20045;-42
2023/03/12 09:29:44;;;;;;;36.78;6.50;;;;;;;9.61;100.00;99535.63;5026121;28;20038;-42
2023/03/12 09:32:26;;;;;;;29.52;6.28;;;;;;;9.73;100.00;99529.13;5025387;28;20065;-45
2023/03/12 09:34:53;;;;;;;32.00;5.72;;;;;;;9.84;100.00;99532.88;5022840;28;20045;-43
2023/03/12 09:37:20;;;;;;;32.30;5.60;;;;;;;9.96;100.00;99529.91;5026118;28;20384;-42
2023/03/12 09:39:50;;;;;;;36.80;7.50;;;;;;;10.01;100.00;99537.88;5010457;28;20045;-43
2023/03/12 09:42:24;;;;;;;28.08;5.78;;;;;;;10.02;100.00;99531.19;5023337;28;20037;-43
2023/03/12 09:44:54;;;;;;;30.73;5.93;;;;;;;10.01;100.00;99534.31;5027373;28;20388;-48
2023/03/12 09:47:27;;;;;;;31.05;6.05;;;;;;;9.97;100.00;99526.00;5024161;28;20128;-43
2023/03/12 09:50:16;;;;;;;24.45;7.47;;;;;;;9.90;100.00;99514.03;5026026;28;20060;-43
2023/03/12 09:53:18;;;;;;;22.52;6.43;;;;;;;9.85;100.00;99509.59;5023097;28;20056;-43
2023/03/12 09:55:47;;;;;;;35.90;5.38;;;;;;;9.86;100.00;99500.13;5003951;28;20045;-43
2023/03/12 09:58:31;;;;;;;24.58;6.50;;;;;;;9.90;100.00;99500.19;5028429;28;20049;-42
2023/03/12 10:01:19;;;;;;;21.00;4.40;;;;;;;10.09;100.00;99500.88;5026393;28;20434;-45
2023/03/12 10:04:17;;;;;;;25.38;5.57;;;;;;;10.26;100.00;99474.69;5028217;28;20415;-43
2023/03/12 10:07:26;;;;;;;26.33;4.60;;;;;;;10.35;100.00;99458.63;5022661;28;20767;-43
2023/03/12 10:10:11;;;;;;;22.35;5.40;;;;;;;10.36;100.00;99441.66;4945098;28;20035;-46
2023/03/12 10:12:53;;;;;;;28.80;5.40;;;;;;;10.50;100.00;99446.56;5026503;28;20038;-44
2023/03/12 10:16:06;;;;;;;31.77;6.33;;;;;;;10.71;100.00;99446.03;5037695;28;20506;-44
2023/03/12 10:18:54;;;;;;;25.08;5.32;;;;;;;10.87;100.00;99443.84;5014287;28;20049;-43
2023/03/12 10:21:27;;;;;;;27.63;5.10;;;;;;;11.09;100.00;99442.13;5025909;28;20095;-46
2023/03/12 10:24:32;;;;;;;31.33;7.22;;;;;;;11.30;100.00;99440.34;5023894;28;20041;-44
2023/03/12 10:27:00;;;;;;;26.60;5.85;;;;;;;11.49;100.00;99442.88;5021129;28;20055;-43
2023/03/12 10:29:35;;;;;;;29.63;6.32;;;;;;;11.63;100.00;99437.47;5023534;28;20037;-47
2023/03/12 10:32:06;;;;;;;23.98;5.85;;;;;;;11.78;100.00;99443.16;5031157;28;20080;-43
2023/03/12 10:34:41;;;;;;;26.88;7.25;;;;;;;11.96;100.00;99430.22;5027408;28;20053;-44
2023/03/12 10:37:41;;;;;;;22.35;5.40;;;;;;;12.18;100.00;99432.72;5030387;28;20390;-44
2023/03/12 10:40:21;;;;;;;17.55;4.05;;;;;;;12.65;100.00;99437.34;5023329;28;20061;-43
2023/03/12 10:42:47;;;;;;;20.15;5.07;;;;;;;13.10;100.00;99429.56;5029117;28;20041;-43
2023/03/12 10:45:29;;;;;;;26.10;5.70;;;;;;;13.54;99.93;99429.19;5028618;28;20049;-48
2023/03/12 10:48:00;;;;;;;18.77;4.32;;;;;;;13.98;96.49;99440.69;5019942;28;20418;-44
2023/03/12 10:50:33;;;;;;;21.60;4.80;;;;;;;13.77;94.15;99433.16;5028360;28;20538;-44
2023/03/12 10:53:36;;;;;;;20.95;4.57;;;;;;;13.29;95.83;99440.31;5025768;28;20925;-44
2023/03/12 10:56:06;;;;;;;19.65;5.15;;;;;;;12.81;93.27;99437.00;5027537;28;20056;-47
2023/03/12 10:58:36;;;;;;;19.35;5.15;;;;;;;12.48;94.60;99437.22;5021483;28;20033;-44
2023/03/12 11:01:19;;;;;;;19.75;4.15;;;;;;;12.23;94.44;99432.34;5022720;28;20057;-43
2023/03/12 11:03:46;;;;;;;25.73;4.88;;;;;;;12.01;94.61;99429.84;4995630;28;20569;-46
2023/03/12 11:06:24;;;;;;;17.30;4.93;;;;;;;11.81;94.31;99428.53;4996207;28;20050;-47
2023/03/12 11:09:19;;;;;;;23.75;5.03;;;;;;;11.67;95.07;99428.38;4999689;28;20049;-46
2023/03/12 11:11:49;;;;;;;25.85;4.68;;;;;;;11.58;94.42;99418.41;5027301;28;20052;-46
2023/03/12 11:14:20;;;;;;;22.17;4.60;;;;;;;11.56;94.08;99414.44;5029983;28;20030;-47
2023/03/12 11:16:49;;;;;;;17.63;4.35;;;;;;;11.55;93.43;99402.56;5029572;28;20394;-43
2023/03/12 11:19:29;;;;;;;14.27;4.03;;;;;;;11.56;93.14;99401.38;5029300;28;20053;-44
2023/03/12 11:21:58;;;;;;;26.70;7.18;;;;;;;11.57;92.77;99400.19;5029584;28;20065;-54
2023/03/12 11:24:25;;;;;;;18.75;5.65;;;;;;;11.59;92.25;99397.03;5029550;28;20579;-44
2023/03/12 11:27:01;;;;;;;26.90;5.70;;;;;;;11.68;92.28;99393.91;5029165;28;20046;-44
2023/03/12 11:29:38;;;;;;;25.95;4.78;;;;;;;11.84;91.81;99389.72;5010256;28;20042;-45
2023/03/12 11:32:30;;;;;;;26.92;6.53;;;;;;;12.07;91.32;99379.16;5029879;28;20120;-44
2023/03/12 11:34:57;;;;;;;19.40;5.85;;;;;;;12.20;90.06;99379.63;5029724;28;20046;-44
2023/03/12 11:37:45;;;;;;;29.55;5.15;;;;;;;12.27;89.96;99376.88;5029957;28;20091;-44